Time;durP1;ratioP1;P1;durP2;ratioP2;P2;SDS_P1;SDS_P2;PMS_P1;PMS_P2;Temp;Humidity;BMP_temperature;BMP_pressure;BME280_temperature;BME280_humidity;BME280_pressure;Samples;Min_cycle;Max_cycle;Signal;HPM_P1;HPM_P2
2022/08/21 00:02:17;;;;;;;;;4.00;2.00;;;;;-145.03;100.00;62373.16;5078869;28;45472;-73
2022/08/21 00:04:42;;;;;;;;;2.67;2.67;;;;;-145.03;100.00;62373.16;5078288;27;45924;-73
2022/08/21 00:07:08;;;;;;;;;2.33;2.33;;;;;-145.03;100.00;62373.16;5078311;28;45391;-73
2022/08/21 00:09:33;;;;;;;;;1.33;1.33;;;;;-145.03;100.00;62373.16;5077455;28;45425;-73
2022/08/21 00:11:58;;;;;;;;;1.67;1.67;;;;;-145.03;100.00;62373.16;5078873;27;45525;-73
2022/08/21 00:14:24;;;;;;;;;3.00;3.00;;;;;-145.03;100.00;62373.16;5078557;27;45448;-74
2022/08/21 00:16:49;;;;;;;;;2.00;2.00;;;;;-145.03;100.00;62373.16;5060227;28;45466;-73
2022/08/21 00:19:15;;;;;;;;;2.00;2.00;;;;;-145.03;100.00;62373.16;5078656;27;46042;-73
2022/08/21 00:21:40;;;;;;;;;3.00;3.00;;;;;-145.03;100.00;62373.16;5078609;27;45532;-73
2022/08/21 00:24:05;;;;;;;;;3.00;3.00;;;;;-145.03;100.00;62373.16;5078146;28;47091;-74
2022/08/21 00:26:31;;;;;;;;;1.00;1.00;;;;;-145.03;100.00;62373.16;5078263;28;45453;-73
2022/08/21 00:28:56;;;;;;;;;5.00;3.00;;;;;-145.03;100.00;62373.16;5078664;28;45607;-73
2022/08/21 00:31:22;;;;;;;;;0.00;0.00;;;;;-145.03;100.00;62373.16;5078607;28;45417;-73
2022/08/21 00:33:47;;;;;;;;;2.67;2.67;;;;;-145.03;100.00;62373.16;5076617;28;46220;-74
2022/08/21 00:36:13;;;;;;;;;3.00;3.00;;;;;-145.03;100.00;62373.16;5077721;28;45493;-73
2022/08/21 00:38:39;;;;;;;;;2.00;2.00;;;;;-145.03;100.00;62373.16;5078213;28;45545;-73
2022/08/21 00:41:08;;;;;;;;;3.00;3.00;;;;;-145.03;100.00;62373.16;5077346;28;45643;-74
2022/08/21 00:43:36;;;;;;;;;3.67;3.67;;;;;-145.03;100.00;62373.16;5077717;27;46925;-73
2022/08/21 00:46:04;;;;;;;;;1.33;1.33;;;;;-145.03;100.00;62373.16;5077839;28;45502;-73
2022/08/21 00:48:29;;;;;;;;;4.00;3.00;;;;;-145.03;100.00;62373.16;5078146;28;45436;-73
2022/08/21 00:51:01;;;;;;;;;2.67;1.00;;;;;-145.03;100.00;62373.16;5077880;28;45436;-74
2022/08/21 00:53:30;;;;;;;;;4.00;2.00;;;;;-145.03;100.00;62373.16;5077542;28;46424;-73
2022/08/21 00:55:56;;;;;;;;;1.00;1.00;;;;;-145.03;100.00;62373.16;5077952;28;45389;-73
2022/08/21 00:58:23;;;;;;;;;1.00;1.00;;;;;-145.03;100.00;62373.16;5078040;28;45482;-73
2022/08/21 01:00:50;;;;;;;;;3.67;2.33;;;;;-145.03;100.00;62373.16;5078355;28;45792;-73
2022/08/21 01:03:19;;;;;;;;;1.67;1.67;;;;;-145.03;100.00;62373.16;5077537;28;47198;-73
2022/08/21 01:05:45;;;;;;;;;4.00;1.00;;;;;-145.03;100.00;62373.16;5077420;27;45438;-73
2022/08/21 01:08:13;;;;;;;;;2.00;1.00;;;;;-145.03;100.00;62373.16;5076413;28;45437;-74
2022/08/21 01:10:39;;;;;;;;;2.67;2.67;;;;;-145.03;100.00;62373.16;5076688;28;45410;-73
2022/08/21 01:13:10;;;;;;;;;4.00;2.00;;;;;-145.03;100.00;62373.16;5077442;28;45358;-73
2022/08/21 01:15:39;;;;;;;;;1.67;1.67;;;;;-145.03;100.00;62373.16;5077373;28;45380;-73
2022/08/21 01:18:07;;;;;;;;;4.00;2.00;;;;;-145.03;100.00;62373.16;5077698;28;45721;-73
2022/08/21 01:20:34;;;;;;;;;4.33;2.00;;;;;-145.03;100.00;62373.16;5077304;28;45483;-73
2022/08/21 01:23:01;;;;;;;;;2.25;1.00;;;;;-145.03;100.00;62373.16;5077482;27;47050;-74
2022/08/21 01:25:26;;;;;;;;;1.00;1.00;;;;;-145.03;100.00;62373.16;5077067;28;45496;-74
2022/08/21 01:27:52;;;;;;;;;1.00;1.00;;;;;-145.03;100.00;62373.16;5077597;28;45918;-85
2022/08/21 01:30:24;;;;;;;;;4.00;2.00;;;;;-145.03;100.00;62373.16;5077695;27;45435;-84
2022/08/21 01:32:50;;;;;;;;;5.00;2.00;;;;;-145.03;100.00;62373.16;5077144;28;47396;-85
2022/08/21 01:35:18;;;;;;;;;1.00;1.00;;;;;-145.03;100.00;62373.16;5076527;28;45331;-85
2022/08/21 01:37:45;;;;;;;;;3.00;2.00;;;;;-145.03;100.00;62373.16;5077136;28;45516;-85
2022/08/21 01:40:12;;;;;;;;;3.00;2.00;;;;;-145.03;100.00;62373.16;5077492;27;45488;-85
2022/08/21 01:42:38;;;;;;;;;3.67;1.00;;;;;-145.03;100.00;62373.16;5076723;27;46875;-85
2022/08/21 01:45:05;;;;;;;;;3.00;2.00;;;;;-145.03;100.00;62373.16;5077265;28;45471;-85
2022/08/21 01:47:31;;;;;;;;;3.00;3.00;;;;;-145.03;100.00;62373.16;5077004;28;45433;-85
2022/08/21 01:49:56;;;;;;;;;2.00;2.00;;;;;-145.03;100.00;62373.16;5077131;28;45507;-85
2022/08/21 01:52:21;;;;;;;;;3.00;2.00;;;;;-145.03;100.00;62373.16;5076428;27;45482;-85
2022/08/21 01:54:47;;;;;;;;;4.67;2.00;;;;;-145.03;100.00;62373.16;5076612;28;45511;-85
2022/08/21 01:57:13;;;;;;;;;1.67;1.67;;;;;-145.03;100.00;62373.16;5076812;28;45461;-85
2022/08/21 01:59:39;;;;;;;;;2.00;2.00;;;;;-145.03;100.00;62373.16;5077247;27;45479;-85
2022/08/21 02:02:05;;;;;;;;;2.33;2.33;;;;;-145.03;100.00;62373.16;5076598;28;46062;-85
2022/08/21 02:04:31;;;;;;;;;3.00;2.00;;;;;-145.03;100.00;62373.16;5076639;28;45611;-85
2022/08/21 02:06:56;;;;;;;;;3.00;2.00;;;;;-145.03;100.00;62373.16;5076824;28;45397;-85
2022/08/21 02:09:22;;;;;;;;;1.33;1.33;;;;;-145.03;100.00;62373.16;5077033;27;45461;-85
2022/08/21 02:11:47;;;;;;;;;3.00;3.00;;;;;-145.03;100.00;62373.16;5075614;28;46471;-85
2022/08/21 02:14:14;;;;;;;;;4.33;1.33;;;;;-145.03;100.00;62373.16;5076341;28;45451;-85
2022/08/21 02:16:42;;;;;;;;;3.00;2.00;;;;;-145.03;100.00;62373.16;5076806;28;45449;-85
2022/08/21 02:19:08;;;;;;;;;3.00;3.00;;;;;-145.03;100.00;62373.16;5075550;28;45383;-85
2022/08/21 02:21:34;;;;;;;;;2.33;2.33;;;;;-145.03;100.00;62373.16;5076442;28;46166;-85
2022/08/21 02:23:59;;;;;;;;;2.67;2.67;;;;;-145.03;100.00;62373.16;5076323;28;45434;-85
2022/08/21 02:26:25;;;;;;;;;4.00;3.00;;;;;-145.03;100.00;62373.16;5076537;28;45468;-85
2022/08/21 02:28:50;;;;;;;;;3.00;2.00;;;;;-145.03;100.00;62373.16;5076957;28;45510;-85
2022/08/21 02:31:16;;;;;;;;;1.67;1.67;;;;;-145.03;100.00;62373.16;5076309;28;47071;-85
2022/08/21 02:33:41;;;;;;;;;3.33;2.00;;;;;-145.03;100.00;62373.16;5076102;28;45452;-85
2022/08/21 02:36:08;;;;;;;;;2.00;2.00;;;;;-145.03;100.00;62373.16;5075202;28;45519;-85
2022/08/21 02:38:38;;;;;;;;;3.33;2.33;;;;;-145.03;100.00;62373.16;5076550;28;45471;-85
2022/08/21 02:41:10;;;;;;;;;2.00;2.00;;;;;-145.03;100.00;62373.16;5076150;28;47493;-85
2022/08/21 02:43:36;;;;;;;;;4.00;2.25;;;;;-145.03;100.00;62373.16;5076112;27;45380;-85
2022/08/21 02:46:04;;;;;;;;;1.00;1.00;;;;;-145.03;100.00;62373.16;5075885;28;45405;-85
2022/08/21 02:48:31;;;;;;;;;4.67;2.67;;;;;-145.03;100.00;62373.16;5076532;28;45510;-85
2022/08/21 02:51:04;;;;;;;;;3.00;2.00;;;;;-145.03;100.00;62373.16;5076168;28;46310;-85
2022/08/21 02:53:31;;;;;;;;;3.67;2.67;;;;;-145.03;100.00;62373.16;5076314;27;45405;-85
2022/08/21 02:55:59;;;;;;;;;3.67;2.00;;;;;-145.03;100.00;62373.16;5076032;28;45424;-85
2022/08/21 02:58:31;;;;;;;;;5.00;3.00;;;;;-145.03;100.00;62373.16;5076499;27;45357;-85
2022/08/21 03:00:58;;;;;;;;;4.00;2.33;;;;;-145.03;100.00;62373.16;5075705;28;45510;-85
2022/08/21 03:03:24;;;;;;;;;3.00;2.00;;;;;-145.03;100.00;62373.16;5076335;28;45744;-85
2022/08/21 03:05:50;;;;;;;;;3.00;3.00;;;;;-145.03;100.00;62373.16;5079639;28;45480;-85
2022/08/21 03:08:18;;;;;;;;;4.33;2.67;;;;;-145.03;100.00;62373.16;5078508;28;45493;-85
2022/08/21 03:10:47;;;;;;;;;2.00;1.00;;;;;-145.03;100.00;62373.16;5079242;28;46227;-85
2022/08/21 03:13:13;;;;;;;;;2.00;2.00;;;;;-145.03;100.00;62373.16;5079350;28;45365;-85
2022/08/21 03:15:39;;;;;;;;;2.00;2.00;;;;;-145.03;100.00;62373.16;5078042;28;45452;-85
2022/08/21 03:18:06;;;;;;;;;3.00;3.00;;;;;-145.03;100.00;62373.16;5079637;28;45377;-85
2022/08/21 03:20:33;;;;;;;;;3.67;3.67;;;;;-145.03;100.00;62373.16;5079364;27;46363;-85
2022/08/21 03:22:59;;;;;;;;;5.00;4.00;;;;;-145.03;100.00;62373.16;5077917;28;45445;-85
2022/08/21 03:25:26;;;;;;;;;2.00;2.00;;;;;-145.03;100.00;62373.16;5079375;28;45515;-85
2022/08/21 03:27:52;;;;;;;;;2.00;2.00;;;;;-145.03;100.00;62373.16;5079426;28;45504;-85
2022/08/21 03:30:20;;;;;;;;;2.00;2.00;;;;;-145.03;100.00;62373.16;5078776;28;46897;-85
2022/08/21 03:32:46;;;;;;;;;3.00;2.00;;;;;-145.03;100.00;62373.16;5079065;28;45503;-85
2022/08/21 03:35:12;;;;;;;;;3.33;3.00;;;;;-145.03;100.00;62373.16;5079206;28;45413;-84
2022/08/21 03:37:38;;;;;;;;;3.00;3.00;;;;;-145.03;100.00;62373.16;5079547;27;45354;-85
2022/08/21 03:40:06;;;;;;;;;3.00;3.00;;;;;-145.03;100.00;62373.16;5078875;27;47575;-85
2022/08/21 03:42:32;;;;;;;;;1.67;1.00;;;;;-145.03;100.00;62373.16;5078893;27;45414;-85
2022/08/21 03:44:57;;;;;;;;;6.67;4.00;;;;;-145.03;100.00;62373.16;5078924;28;45431;-85
2022/08/21 03:47:22;;;;;;;;;5.00;3.00;;;;;-145.03;100.00;62373.16;5079216;28;45419;-84
2022/08/21 03:49:48;;;;;;;;;2.67;2.33;;;;;-145.03;100.00;62373.16;5078910;28;46150;-84
2022/08/21 03:52:13;;;;;;;;;2.67;2.67;;;;;-145.03;100.00;62373.16;5078813;28;45405;-84
2022/08/21 03:54:41;;;;;;;;;4.00;3.00;;;;;-145.03;100.00;62373.16;5078993;28;45427;-84
2022/08/21 03:57:07;;;;;;;;;2.33;2.33;;;;;-145.03;100.00;62373.16;5079262;28;45472;-84
2022/08/21 03:59:33;;;;;;;;;2.00;2.00;;;;;-145.03;100.00;62373.16;5078282;27;47185;-85
2022/08/21 04:02:01;;;;;;;;;3.33;1.67;;;;;-145.03;100.00;62373.16;5078745;28;45820;-85
2022/08/21 04:04:28;;;;;;;;;2.00;2.00;;;;;-145.03;100.00;62373.16;5078731;28;45515;-85
2022/08/21 04:06:54;;;;;;;;;2.67;2.33;;;;;-145.03;100.00;62373.16;5078745;28;45432;-84
2022/08/21 04:09:20;;;;;;;;;3.00;3.00;;;;;-145.03;100.00;62373.16;5078438;28;46424;-85
2022/08/21 04:11:46;;;;;;;;;3.00;3.00;;;;;-145.03;100.00;62373.16;5077417;28;45413;-85
2022/08/21 04:14:13;;;;;;;;;1.67;1.67;;;;;-145.03;100.00;62373.16;5078282;27;45406;-84
2022/08/21 04:16:38;;;;;;;;;4.00;3.67;;;;;-145.03;100.00;62373.16;5078612;27;45512;-84
2022/08/21 04:19:04;;;;;;;;;4.33;3.00;;;;;-145.03;100.00;62373.16;5078412;27;45402;-85
2022/08/21 04:21:30;;;;;;;;;3.67;2.67;;;;;-145.03;100.00;62373.16;5078202;28;45379;-84
2022/08/21 04:23:56;;;;;;;;;3.67;3.33;;;;;-145.03;100.00;62373.16;5078428;28;45398;-84
2022/08/21 04:26:22;;;;;;;;;3.33;3.00;;;;;-145.03;100.00;62373.16;5078490;27;45468;-85
2022/08/21 04:28:47;;;;;;;;;3.00;3.00;;;;;-145.03;100.00;62373.16;5078064;28;47111;-85
2022/08/21 04:31:12;;;;;;;;;4.00;2.00;;;;;-145.03;100.00;62373.16;5078292;28;45463;-84
2022/08/21 04:33:38;;;;;;;;;3.00;3.00;;;;;-145.03;100.00;62373.16;5078333;28;45369;-84
2022/08/21 04:36:04;;;;;;;;;4.00;4.00;;;;;-145.03;100.00;62373.16;5078376;27;45511;-85
2022/08/21 04:38:31;;;;;;;;;2.00;0.67;;;;;-145.03;100.00;62373.16;5078089;27;46950;-84
2022/08/21 04:40:57;;;;;;;;;4.00;4.00;;;;;-145.03;100.00;62373.16;5078167;28;45384;-84
2022/08/21 04:43:23;;;;;;;;;6.00;3.00;;;;;-145.03;100.00;62373.16;5077630;27;45476;-84
2022/08/21 04:45:49;;;;;;;;;2.00;2.00;;;;;-145.03;100.00;62373.16;5078356;27;45313;-84
2022/08/21 04:48:18;;;;;;;;;3.67;3.67;;;;;-145.03;100.00;62373.16;5077867;27;46074;-84
2022/08/21 04:51:15;;;;;;;;;3.00;2.00;;;;;-145.03;100.00;62373.16;5077863;27;45514;-84
2022/08/21 04:53:50;;;;;;;;;2.67;2.67;;;;;-145.03;100.00;62373.16;5077961;27;45434;-84
2022/08/21 04:56:26;;;;;;;;;3.00;3.00;;;;;-145.03;100.00;62373.16;5078007;28;45394;-84
2022/08/21 04:58:55;;;;;;;;;5.00;4.00;;;;;-145.03;100.00;62373.16;5077396;27;46361;-84
2022/08/21 05:01:24;;;;;;;;;2.00;2.00;;;;;-145.03;100.00;62373.16;5077501;27;45502;-84
2022/08/21 05:03:55;;;;;;;;;3.00;3.00;;;;;-145.03;100.00;62373.16;5077981;27;45514;-84
2022/08/21 05:06:21;;;;;;;;;3.00;3.00;;;;;-145.03;100.00;62373.16;5078194;27;45376;-84
2022/08/21 05:08:50;;;;;;;;;2.33;2.33;;;;;-145.03;100.00;62373.16;5077428;28;46107;-84
2022/08/21 05:11:16;;;;;;;;;3.00;3.00;;;;;-145.03;100.00;62373.16;5077211;28;45531;-84
2022/08/21 05:13:41;;;;;;;;;3.00;3.00;;;;;-145.03;100.00;62373.16;5076401;28;45643;-85
2022/08/21 05:16:07;;;;;;;;;3.33;3.33;;;;;-145.03;100.00;62373.16;5077884;28;45436;-84
2022/08/21 05:18:33;;;;;;;;;1.67;0.00;;;;;-145.03;100.00;62373.16;5077547;27;46060;-84
2022/08/21 05:20:58;;;;;;;;;4.67;4.00;;;;;-145.03;100.00;62373.16;5077448;28;46073;-84
2022/08/21 05:23:24;;;;;;;;;3.00;2.67;;;;;-145.03;100.00;62373.16;5077682;28;45472;-85
2022/08/21 05:25:51;;;;;;;;;2.33;2.33;;;;;-145.03;100.00;62373.16;5077356;28;45651;-84
2022/08/21 05:28:17;;;;;;;;;4.33;3.33;;;;;-145.03;100.00;62373.16;5076653;27;46289;-73
2022/08/21 05:30:43;;;;;;;;;4.00;4.00;;;;;-145.03;100.00;62373.16;5077181;28;45567;-73
2022/08/21 05:33:09;;;;;;;;;3.00;3.00;;;;;-145.03;100.00;62373.16;5077393;28;45519;-73
2022/08/21 05:35:35;;;;;;;;;3.00;3.00;;;;;-145.03;100.00;62373.16;5077198;28;45440;-73
2022/08/21 05:38:02;;;;;;;;;3.00;1.00;;;;;-145.03;100.00;62373.16;5077006;28;46264;-73
2022/08/21 05:40:28;;;;;;;;;5.00;3.67;;;;;-145.03;100.00;62373.16;5076739;28;45492;-73
2022/08/21 05:42:54;;;;;;;;;4.00;2.00;;;;;-145.03;100.00;62373.16;5076995;27;45389;-73
2022/08/21 05:45:24;;;;;;;;;3.00;3.00;;;;;-145.03;100.00;62373.16;5077270;28;45360;-74
2022/08/21 05:47:49;;;;;;;;;2.67;2.67;;;;;-145.03;100.00;62373.16;5076905;28;46240;-73
2022/08/21 05:50:14;;;;;;;;;3.33;3.33;;;;;-145.03;100.00;62373.16;5058987;28;45666;-73
2022/08/21 05:52:40;;;;;;;;;6.00;3.67;;;;;-145.03;100.00;62373.16;5077157;28;45397;-73
2022/08/21 05:55:05;;;;;;;;;4.00;3.33;;;;;-145.03;100.00;62373.16;5077120;28;45342;-74
2022/08/21 05:57:31;;;;;;;;;3.00;3.00;;;;;-145.03;100.00;62373.16;5076690;28;45913;-73
2022/08/21 05:59:56;;;;;;;;;4.00;4.00;;;;;-145.03;100.00;62373.16;5076819;28;45404;-74
2022/08/21 06:02:22;;;;;;;;;3.33;3.33;;;;;-145.03;100.00;62373.16;5076822;28;45438;-73
2022/08/21 06:04:48;;;;;;;;;3.00;3.00;;;;;-145.03;100.00;62373.16;5058996;28;45539;-73
2022/08/21 06:07:13;;;;;;;;;2.00;1.67;;;;;-145.03;100.00;62373.16;5076475;28;47107;-74
2022/08/21 06:09:39;;;;;;;;;4.67;3.00;;;;;-145.03;100.00;62373.16;5075177;28;45427;-73
2022/08/21 06:12:05;;;;;;;;;2.00;2.00;;;;;-145.03;100.00;62373.16;5076495;28;45413;-74
2022/08/21 06:14:31;;;;;;;;;3.00;3.00;;;;;-145.03;100.00;62373.16;5076945;28;45396;-73
2022/08/21 06:17:05;;;;;;;;;5.00;5.00;;;;;-145.03;100.00;62373.16;5058436;28;45551;-73
2022/08/21 06:19:31;;;;;;;;;4.67;4.67;;;;;-145.03;100.00;62373.16;5076551;28;45471;-74
2022/08/21 06:21:57;;;;;;;;;3.33;3.33;;;;;-145.03;100.00;62373.16;5076433;28;45481;-73
2022/08/21 06:24:23;;;;;;;;;7.67;5.00;;;;;-145.03;100.00;62373.16;5058293;28;45592;-73
2022/08/21 06:26:48;;;;;;;;;0.67;0.67;;;;;-145.03;100.00;62373.16;5058260;28;48185;-74
2022/08/21 06:29:16;;;;;;;;;5.67;4.67;;;;;-145.03;100.00;62373.16;5076451;28;45508;-74
2022/08/21 06:31:42;;;;;;;;;4.00;4.00;;;;;-145.03;100.00;62373.16;5058588;28;45438;-74
2022/08/21 06:34:08;;;;;;;;;4.67;3.67;;;;;-145.03;100.00;62373.16;5076628;28;45647;-74
2022/08/21 06:36:33;;;;;;;;;3.67;3.00;;;;;-145.03;100.00;62373.16;5076438;28;46121;-74
2022/08/21 06:38:59;;;;;;;;;5.00;5.00;;;;;-145.03;100.00;62373.16;5076989;28;45463;-74
2022/08/21 06:41:24;;;;;;;;;4.33;4.33;;;;;-145.03;100.00;62373.16;5079992;28;45578;-74
2022/08/21 06:43:50;;;;;;;;;7.00;7.00;;;;;-145.03;100.00;62373.16;5080114;27;45431;-73
2022/08/21 06:46:15;;;;;;;;;5.00;4.00;;;;;-145.03;100.00;62373.16;5078419;28;47021;-73
2022/08/21 06:48:41;;;;;;;;;6.00;6.00;;;;;-145.03;100.00;62373.16;5079951;28;45461;-73
2022/08/21 06:51:06;;;;;;;;;6.33;6.33;;;;;-145.03;100.00;62373.16;5079969;28;46057;-72
2022/08/21 06:53:32;;;;;;;;;8.00;5.33;;;;;-145.03;100.00;62373.16;5080083;28;45519;-72
2022/08/21 06:55:57;;;;;;;;;5.00;5.00;;;;;-145.03;100.00;62373.16;5079343;27;45992;-72
2022/08/21 06:58:23;;;;;;;;;9.00;5.33;;;;;-145.03;100.00;62373.16;5079497;27;45581;-73
2022/08/21 07:00:51;;;;;;;;;7.33;7.33;;;;;-145.03;100.00;62373.16;5079925;27;45510;-72
2022/08/21 07:03:19;;;;;;;;;4.67;4.00;;;;;-145.03;100.00;62373.16;5080141;28;45417;-73
2022/08/21 07:05:44;;;;;;;;;5.00;5.00;;;;;-145.03;100.00;62373.16;5079420;28;46231;-73
2022/08/21 07:08:10;;;;;;;;;2.67;2.67;;;;;-145.03;100.00;62373.16;5079106;28;45461;-73
2022/08/21 07:10:35;;;;;;;;;4.67;4.67;;;;;-145.03;100.00;62373.16;5078303;28;45394;-73
2022/08/21 07:13:01;;;;;;;;;4.33;4.00;;;;;-145.03;100.00;62373.16;5080044;27;45349;-72
2022/08/21 07:15:27;;;;;;;;;6.00;6.00;;;;;-145.03;100.00;62373.16;5079313;27;45847;-72
2022/08/21 07:17:52;;;;;;;;;6.00;4.33;;;;;-145.03;100.00;62373.16;5079257;28;45502;-72
2022/08/21 07:20:17;;;;;;;;;5.00;4.00;;;;;-145.03;100.00;62373.16;5079418;28;45750;-72
2022/08/21 07:22:43;;;;;;;;;8.00;5.00;;;;;-145.03;100.00;62373.16;5079367;28;45460;-73
2022/08/21 07:25:09;;;;;;;;;4.33;3.67;;;;;-145.03;100.00;62373.16;5077726;28;46057;-72
2022/08/21 07:27:34;;;;;;;;;3.67;3.67;;;;;-145.03;100.00;62373.16;5079319;28;45405;-73
2022/08/21 07:30:00;;;;;;;;;5.67;5.00;;;;;-145.03;100.00;62373.16;5079345;28;45408;-73
2022/08/21 07:32:25;;;;;;;;;5.00;5.00;;;;;-145.03;100.00;62373.16;5079449;28;45432;-72
2022/08/21 07:34:51;;;;;;;;;4.00;4.00;;;;;-145.03;100.00;62373.16;5079008;28;45535;-73
2022/08/21 07:37:16;;;;;;;;;5.00;5.00;;;;;-145.03;100.00;62373.16;5078714;27;45437;-73
2022/08/21 07:39:42;;;;;;;;;6.00;6.00;;;;;-145.03;100.00;62373.16;5079110;28;45390;-73
2022/08/21 07:42:07;;;;;;;;;7.00;4.67;;;;;-145.03;100.00;62373.16;5079216;28;45494;-73
2022/08/21 07:44:34;;;;;;;;;5.33;3.67;;;;;-145.03;100.00;62373.16;5073666;27;46325;-73
2022/08/21 07:47:00;;;;;;;;;6.00;6.00;;;;;-145.03;100.00;62373.16;5058698;28;45445;-72
2022/08/21 07:49:25;;;;;;;;;6.00;6.00;;;;;-145.03;100.00;62373.16;5058541;28;45702;-72
2022/08/21 07:51:51;;;;;;;;;5.00;5.00;;;;;-145.03;100.00;62373.16;5058550;28;45413;-72
2022/08/21 07:54:17;;;;;;;;;7.33;6.00;;;;;-145.03;100.00;62373.16;5058296;28;47103;-72
2022/08/21 07:56:42;;;;;;;;;7.00;6.00;;;;;-145.03;100.00;62373.16;5058281;28;45450;-73
2022/08/21 07:59:07;;;;;;;;;4.67;4.00;;;;;-145.03;100.00;62373.16;5058574;28;46078;-73
2022/08/21 08:01:33;;;;;;;;;8.33;6.33;;;;;-145.03;100.00;62373.16;5058890;28;45417;-72
2022/08/21 08:03:58;;;;;;;;;4.67;4.33;;;;;-145.03;100.00;62373.16;5057036;28;46136;-72
2022/08/21 08:06:24;;;;;;;;;4.00;4.00;;;;;-145.03;100.00;62373.16;5058015;28;45437;-73
2022/08/21 08:08:49;;;;;;;;;6.33;5.00;;;;;-145.03;100.00;62373.16;5056936;28;45509;-72
2022/08/21 08:11:17;;;;;;;;;6.67;5.33;;;;;-145.03;100.00;62373.16;5058630;28;45498;-73
2022/08/21 08:13:45;;;;;;;;;5.67;5.67;;;;;-145.03;100.00;62373.16;5058196;28;45515;-73
2022/08/21 08:16:11;;;;;;;;;6.33;6.00;;;;;-145.03;100.00;62373.16;5057957;28;45331;-73
2022/08/21 08:18:37;;;;;;;;;5.67;4.00;;;;;-145.03;100.00;62373.16;5058567;28;45613;-72
2022/08/21 08:21:03;;;;;;;;;3.67;3.67;;;;;-145.03;100.00;62373.16;5058367;28;45398;-72
2022/08/21 08:23:30;;;;;;;;;6.00;5.67;;;;;-145.03;100.00;62373.16;5058023;28;45536;-73
2022/08/21 08:25:55;;;;;;;;;5.00;4.00;;;;;-145.03;100.00;62373.16;5057944;28;45484;-73
2022/08/21 08:28:21;;;;;;;;;5.00;5.00;;;;;-145.03;100.00;62373.16;5056874;28;45458;-73
2022/08/21 08:30:47;;;;;;;;;4.00;3.00;;;;;-145.03;100.00;62373.16;5058575;28;45433;-73
2022/08/21 08:33:13;;;;;;;;;5.33;2.67;;;;;-145.03;100.00;62373.16;5057750;28;45763;-73
2022/08/21 08:35:40;;;;;;;;;4.67;4.67;;;;;-145.03;100.00;62373.16;5057771;28;45732;-73
2022/08/21 08:38:05;;;;;;;;;4.00;4.00;;;;;-145.03;100.00;62373.16;5058207;28;45592;-73
2022/08/21 08:40:43;;;;;;;;;6.67;5.00;;;;;-145.03;100.00;62373.16;5057988;28;45524;-73
2022/08/21 08:43:09;;;;;;;;;6.00;4.67;;;;;-145.03;100.00;62373.16;5066214;27;47524;-73
2022/08/21 08:45:38;;;;;;;;;3.67;3.67;;;;;-145.03;100.00;62373.16;5077804;28;45427;-72
2022/08/21 08:48:08;;;;;;;;;4.00;3.00;;;;;-145.03;100.00;62373.16;5078107;28;45512;-72
2022/08/21 08:50:40;;;;;;;;;2.33;2.33;;;;;-145.03;100.00;62373.16;5078074;28;45473;-73
2022/08/21 08:53:12;;;;;;;;;5.00;4.00;;;;;-145.03;100.00;62373.16;5077930;28;46493;-72
2022/08/21 08:55:40;;;;;;;;;4.33;4.33;;;;;-145.03;100.00;62373.16;5077839;28;45394;-73
2022/08/21 08:58:11;;;;;;;;;4.00;3.33;;;;;-145.03;100.00;62373.16;5077793;27;45406;-74
2022/08/21 09:00:38;;;;;;;;;4.00;4.00;;;;;-145.03;100.00;62373.16;5078035;28;45320;-73
2022/08/21 09:03:03;;;;;;;;;5.00;4.00;;;;;-145.03;100.00;62373.16;5076596;28;46033;-72
2022/08/21 09:05:36;;;;;;;;;3.00;3.00;;;;;-145.03;100.00;62373.16;5077550;28;45381;-73
2022/08/21 09:08:31;;;;;;;;;4.00;4.00;;;;;-145.03;100.00;62373.16;5077785;28;45675;-73
2022/08/21 09:11:07;;;;;;;;;3.00;2.00;;;;;-145.03;100.00;62373.16;5078237;28;45503;-73
2022/08/21 09:13:41;;;;;;;;;3.00;3.00;;;;;-145.03;100.00;62373.16;5077454;28;46411;-72
2022/08/21 09:16:19;;;;;;;;;4.00;4.00;;;;;-145.03;100.00;62373.16;5077358;28;45457;-73
2022/08/21 09:19:07;;;;;;;;;3.00;3.00;;;;;-145.03;100.00;62373.16;5077462;27;45477;-73
2022/08/21 09:22:03;;;;;;;;;3.00;2.33;;;;;-145.03;100.00;62373.16;5077834;27;45437;-73
2022/08/21 09:24:52;;;;;;;;;2.00;2.00;;;;;-145.03;100.00;62373.16;5077130;28;47002;-73
2022/08/21 09:27:19;;;;;;;;;4.67;3.00;;;;;-145.03;100.00;62373.16;5077139;28;45467;-73
2022/08/21 09:29:48;;;;;;;;;3.00;3.00;;;;;-145.03;100.00;62373.16;5077534;28;45599;-73
2022/08/21 09:32:24;;;;;;;;;3.75;2.00;;;;;-145.03;100.00;62373.16;5077545;28;45430;-73
2022/08/21 09:35:09;;;;;;;;;3.00;3.00;;;;;-145.03;100.00;62373.16;5077112;28;46557;-73
2022/08/21 09:37:55;;;;;;;;;3.00;3.00;;;;;-145.03;100.00;62373.16;5077094;28;45421;-73
2022/08/21 09:40:31;;;;;;;;;3.25;2.00;;;;;-145.03;100.00;62373.16;5077475;27;45424;-73
2022/08/21 09:43:04;;;;;;;;;3.00;3.00;;;;;-145.03;100.00;62373.16;5077339;27;45421;-73
2022/08/21 09:45:31;;;;;;;;;3.00;2.00;;;;;-145.03;100.00;62373.16;5076821;28;46131;-73
2022/08/21 09:48:12;;;;;;;;;2.50;2.50;;;;;-145.03;100.00;62373.16;5076895;28;45630;-73
2022/08/21 09:50:38;;;;;;;;;4.25;2.75;;;;;-145.03;100.00;62373.16;5077096;28;45476;-73
2022/08/21 09:53:05;;;;;;;;;6.00;3.33;;;;;-145.03;100.00;62373.16;5077363;28;45713;-73
2022/08/21 09:58:32;;;;;;;;;2.00;2.00;;;;;-145.03;100.00;62373.16;5076929;28;45509;-73
2022/08/21 10:01:00;;;;;;;;;2.00;2.00;;;;;-145.03;100.00;62373.16;5077037;28;45477;-73
2022/08/21 10:03:26;;;;;;;;;4.00;2.00;;;;;-145.03;100.00;62373.16;5077158;28;45522;-74
2022/08/21 10:06:05;;;;;;;;;2.00;2.00;;;;;-145.03;100.00;62373.16;5058428;28;45524;-73
2022/08/21 10:08:33;;;;;;;;;4.00;2.00;;;;;-145.03;100.00;62373.16;5076701;28;45397;-74
2022/08/21 10:11:12;;;;;;;;;2.25;2.25;;;;;-145.03;100.00;62373.16;5076961;28;45638;-73
2022/08/21 10:13:58;;;;;;;;;1.00;1.00;;;;;-145.03;100.00;62373.16;5076911;28;45476;-73
2022/08/21 10:16:44;;;;;;;;;2.75;2.00;;;;;-145.03;100.00;62373.16;5076327;28;45580;-73
2022/08/21 10:19:47;;;;;;;;;21.00;19.00;;;;;-145.03;100.00;62373.16;5076653;28;45363;-73
2022/08/21 10:22:22;;;;;;;;;7.00;7.00;;;;;-145.03;100.00;62373.16;5076498;28;45411;-73
2022/08/21 10:25:14;;;;;;;;;3.33;3.33;;;;;-145.03;100.00;62373.16;5076979;28;45446;-73
2022/08/21 10:28:00;;;;;;;;;4.33;3.67;;;;;-145.03;100.00;62373.16;5067930;28;46311;-73
2022/08/21 10:30:45;;;;;;;;;6.00;4.33;;;;;-145.03;100.00;62373.16;5076355;28;45588;-73
2022/08/21 10:33:30;;;;;;;;;5.67;3.33;;;;;-145.03;100.00;62373.16;5076243;28;45532;-73
2022/08/21 10:36:23;;;;;;;;;3.25;2.00;;;;;-145.03;100.00;62373.16;5076326;28;45461;-73
2022/08/21 10:38:54;;;;;;;;;5.00;4.00;;;;;-145.03;100.00;62373.16;5076284;28;46211;-73
2022/08/21 10:41:39;;;;;;;;;3.00;3.00;;;;;-145.03;100.00;62373.16;5075891;28;45517;-73
2022/08/21 10:44:26;;;;;;;;;5.33;3.00;;;;;-145.03;100.00;62373.16;5076156;27;45394;-73
2022/08/21 10:47:02;;;;;;;;;3.25;3.25;;;;;-145.03;100.00;62373.16;5076439;28;45662;-73
2022/08/21 10:49:39;;;;;;;;;2.67;2.67;;;;;-145.03;100.00;62373.16;5076043;28;45478;-73
2022/08/21 10:52:23;;;;;;;;;5.00;4.00;;;;;-145.03;100.00;62373.16;5076009;28;45332;-73
2022/08/21 10:55:08;;;;;;;;;3.00;3.00;;;;;-145.03;100.00;62373.16;5076288;28;45593;-73
2022/08/21 10:58:00;;;;;;;;;6.25;5.00;;;;;-145.03;100.00;62373.16;5076613;28;45536;-73
2022/08/21 11:00:40;;;;;;;;;5.00;5.00;;;;;-145.03;100.00;62373.16;5075846;28;46430;-73
2022/08/21 11:03:19;;;;;;;;;3.67;3.67;;;;;-145.03;100.00;62373.16;5076308;27;45639;-73
2022/08/21 11:05:52;;;;;;;;;17.33;13.00;;;;;-145.03;100.00;62373.16;5074759;28;45537;-73
2022/08/21 11:08:37;;;;;;;;;7.33;7.33;;;;;-145.03;100.00;62373.16;5075159;28;45660;-73
2022/08/21 11:11:29;;;;;;;;;15.00;12.00;;;;;-145.03;100.00;62373.16;5074355;28;47221;-72
2022/08/21 11:14:09;;;;;;;;;1.75;1.75;;;;;-145.03;100.00;62373.16;5075659;28;45460;-73
2022/08/21 11:16:43;;;;;;;;;3.75;3.00;;;;;-145.03;100.00;62373.16;5075976;27;45329;-73
2022/08/21 11:19:17;;;;;;;;;3.00;1.50;;;;;-145.03;100.00;62373.16;5075090;28;45752;-72
2022/08/21 11:21:48;;;;;;;;;1.50;1.50;;;;;-145.03;100.00;62373.16;5075637;28;47356;-72